createdAt,value
2019-01-20T00:00:20.880Z,-2.94
2019-01-20T00:00:55.774Z,-2.94
2019-01-20T00:01:29.192Z,-3.00
2019-01-20T00:02:02.862Z,-3.00
2019-01-20T00:02:36.035Z,-3.00
2019-01-20T00:03:09.209Z,-3.00
2019-01-20T00:03:42.337Z,-3.00
2019-01-20T00:04:15.414Z,-3.06
2019-01-20T00:04:48.601Z,-3.00
2019-01-20T00:05:21.844Z,-3.00
2019-01-20T00:05:55.050Z,-3.00
2019-01-20T00:06:28.214Z,-2.94
2019-01-20T00:07:01.262Z,-2.94
2019-01-20T00:07:34.436Z,-2.94
2019-01-20T00:08:10.417Z,-2.94
2019-01-20T00:08:43.434Z,-2.94
2019-01-20T00:09:17.490Z,-2.87
2019-01-20T00:09:53.103Z,-2.87
2019-01-20T00:10:26.442Z,-2.94
2019-01-20T00:10:59.460Z,-2.94
2019-01-20T00:11:34.604Z,-2.94
2019-01-20T00:12:09.204Z,-2.94
2019-01-20T00:12:42.353Z,-2.94
2019-01-20T00:13:15.302Z,-2.94
2019-01-20T00:13:48.439Z,-3.00
2019-01-20T00:14:21.359Z,-3.00
2019-01-20T00:14:54.495Z,-3.00
2019-01-20T00:15:27.644Z,-3.00
2019-01-20T00:16:00.890Z,-3.06
2019-01-20T00:16:34.042Z,-3.06
2019-01-20T00:17:07.176Z,-3.06
2019-01-20T00:17:40.310Z,-3.06
2019-01-20T00:18:13.312Z,-3.06
2019-01-20T00:18:46.486Z,-3.06
2019-01-20T00:19:19.603Z,-3.06
2019-01-20T00:19:52.590Z,-3.12
2019-01-20T00:20:25.669Z,-3.12
2019-01-20T00:20:59.675Z,-3.12
2019-01-20T00:21:32.856Z,-3.12
2019-01-20T00:22:06.015Z,-3.12
2019-01-20T00:22:39.037Z,-3.12
2019-01-20T00:23:12.116Z,-3.12
2019-01-20T00:23:45.251Z,-3.19
2019-01-20T00:24:18.406Z,-3.19
2019-01-20T00:24:51.506Z,-3.19
2019-01-20T00:25:24.572Z,-3.19
2019-01-20T00:25:57.580Z,-3.19
2019-01-20T00:26:30.760Z,-3.19
2019-01-20T00:27:03.970Z,-3.19
2019-01-20T00:27:37.113Z,-3.19
2019-01-20T00:28:10.160Z,-3.19
2019-01-20T00:28:43.961Z,-3.19
2019-01-20T00:29:16.972Z,-3.12
2019-01-20T00:29:50.122Z,-3.12
2019-01-20T00:30:23.374Z,-3.12
2019-01-20T00:30:56.417Z,-3.12
2019-01-20T00:31:29.314Z,-3.12
2019-01-20T00:32:02.550Z,-3.12
2019-01-20T00:32:35.680Z,-3.12
2019-01-20T00:33:08.838Z,-3.06
2019-01-20T00:33:41.878Z,-3.06
2019-01-20T00:34:15.296Z,-3.06
2019-01-20T00:34:48.275Z,-3.06
2019-01-20T00:35:21.393Z,-3.06
2019-01-20T00:35:54.304Z,-3.06
2019-01-20T00:36:29.001Z,-3.00
2019-01-20T00:37:02.004Z,-3.00
2019-01-20T00:37:35.078Z,-3.00
2019-01-20T00:38:08.210Z,-3.00
2019-01-20T00:38:41.369Z,-3.00
2019-01-20T00:39:14.615Z,-3.06
2019-01-20T00:39:47.783Z,-3.06
2019-01-20T00:40:20.859Z,-3.06
2019-01-20T00:40:53.981Z,-3.06
2019-01-20T00:41:27.008Z,-3.06
2019-01-20T00:42:01.180Z,-3.00
2019-01-20T00:42:34.320Z,-3.00
2019-01-20T00:43:07.488Z,-3.00
2019-01-20T00:43:40.498Z,-3.00
2019-01-20T00:44:13.572Z,-3.00
2019-01-20T00:44:46.592Z,-3.00
2019-01-20T00:45:19.638Z,-3.00
2019-01-20T00:45:52.666Z,-3.00
2019-01-20T00:46:26.948Z,-3.00
2019-01-20T00:47:03.282Z,-3.06
2019-01-20T00:47:37.933Z,-3.06
2019-01-20T00:48:10.946Z,-3.06
2019-01-20T00:48:44.000Z,-3.06
2019-01-20T00:49:17.010Z,-3.06
2019-01-20T00:49:50.106Z,-3.12
2019-01-20T00:50:23.502Z,-3.12
2019-01-20T00:50:56.563Z,-3.12
2019-01-20T00:51:30.040Z,-3.12
2019-01-20T00:52:03.524Z,-3.12
2019-01-20T00:52:36.539Z,-3.12
2019-01-20T00:53:09.706Z,-3.12
2019-01-20T00:53:42.736Z,-3.12
2019-01-20T00:54:15.940Z,-3.12
2019-01-20T00:54:49.060Z,-3.12
2019-01-20T00:55:22.160Z,-3.12
2019-01-20T00:55:55.091Z,-3.12
2019-01-20T00:56:28.291Z,-3.12
2019-01-20T00:57:01.316Z,-3.12
2019-01-20T00:57:34.360Z,-3.06
2019-01-20T00:58:07.470Z,-3.06
2019-01-20T00:58:40.510Z,-3.06
2019-01-20T00:59:13.408Z,-3.06
2019-01-20T00:59:46.496Z,-3.06
2019-01-20T01:00:24.325Z,-3.00
2019-01-20T01:00:57.862Z,-3.00
2019-01-20T01:01:30.916Z,-3.00
2019-01-20T01:02:04.720Z,-3.00
2019-01-20T01:02:38.036Z,-2.94
2019-01-20T01:03:11.164Z,-2.94
2019-01-20T01:03:44.666Z,-2.94
2019-01-20T01:04:17.792Z,-3.00
2019-01-20T01:04:51.016Z,-3.00
2019-01-20T01:05:24.595Z,-3.00
2019-01-20T01:05:57.791Z,-2.94
2019-01-20T01:06:30.762Z,-2.94
2019-01-20T01:07:04.346Z,-2.94
2019-01-20T01:07:37.490Z,-2.94
2019-01-20T01:08:11.091Z,-2.94
2019-01-20T01:08:44.230Z,-2.94
2019-01-20T01:09:17.303Z,-2.94
2019-01-20T01:09:50.497Z,-2.94
2019-01-20T01:10:23.664Z,-2.94
2019-01-20T01:10:56.928Z,-2.94
2019-01-20T01:11:31.841Z,-3.00
2019-01-20T01:12:06.859Z,-2.94
2019-01-20T01:12:40.058Z,-2.94
2019-01-20T01:13:14.768Z,-2.94
2019-01-20T01:13:48.058Z,-2.94
2019-01-20T01:14:21.216Z,-2.94
2019-01-20T01:14:54.461Z,-3.00
2019-01-20T01:15:27.647Z,-3.00
2019-01-20T01:16:00.801Z,-3.00
2019-01-20T01:16:34.011Z,-3.00
2019-01-20T01:17:07.169Z,-3.00
2019-01-20T01:17:40.218Z,-3.06
2019-01-20T01:18:13.370Z,-3.06
2019-01-20T01:18:46.738Z,-3.00
2019-01-20T01:19:19.691Z,-3.06
2019-01-20T01:19:52.786Z,-3.06
2019-01-20T01:20:25.823Z,-3.06
2019-01-20T01:20:59.051Z,-3.12
2019-01-20T01:21:32.129Z,-3.06
2019-01-20T01:22:05.297Z,-3.12
2019-01-20T01:22:38.355Z,-3.12
2019-01-20T01:23:11.533Z,-3.12
2019-01-20T01:23:44.467Z,-3.06
2019-01-20T01:24:17.529Z,-3.06
2019-01-20T01:24:50.982Z,-3.06
2019-01-20T01:25:24.122Z,-3.06
2019-01-20T01:25:57.178Z,-3.06
2019-01-20T01:26:30.302Z,-3.00
2019-01-20T01:27:03.426Z,-3.00
2019-01-20T01:27:36.616Z,-3.06
2019-01-20T01:28:09.744Z,-3.06
2019-01-20T01:28:42.903Z,-3.06
2019-01-20T01:29:15.837Z,-3.06
2019-01-20T01:29:48.955Z,-3.06
2019-01-20T01:30:24.685Z,-3.06
2019-01-20T01:30:57.865Z,-3.06
2019-01-20T01:31:31.035Z,-3.06
2019-01-20T01:32:04.031Z,-3.06
2019-01-20T01:32:37.116Z,-3.06
2019-01-20T01:33:10.161Z,-3.06
2019-01-20T01:33:43.307Z,-3.06
2019-01-20T01:34:16.355Z,-3.00
2019-01-20T01:34:49.395Z,-3.00
2019-01-20T01:35:22.507Z,-2.94
2019-01-20T01:35:55.446Z,-2.94
2019-01-20T01:36:28.749Z,-2.87
2019-01-20T01:37:01.874Z,-2.94
2019-01-20T01:37:35.085Z,-2.87
2019-01-20T01:38:08.327Z,-2.87
2019-01-20T01:38:41.653Z,-2.87
2019-01-20T01:39:16.152Z,-2.87
2019-01-20T01:39:49.065Z,-2.87
2019-01-20T01:40:22.186Z,-2.81
2019-01-20T01:40:56.983Z,-2.81
2019-01-20T01:41:29.916Z,-2.81
2019-01-20T01:42:03.126Z,-2.81
2019-01-20T01:42:36.245Z,-2.81
2019-01-20T01:43:09.379Z,-2.81
2019-01-20T01:43:43.433Z,-2.75
2019-01-20T01:44:17.619Z,-2.75
2019-01-20T01:44:50.767Z,-2.75
2019-01-20T01:45:23.823Z,-2.75
2019-01-20T01:45:57.045Z,-2.75
2019-01-20T01:46:30.385Z,-2.75
2019-01-20T01:47:03.542Z,-2.75
2019-01-20T01:47:36.563Z,-2.69
2019-01-20T01:48:09.605Z,-2.69
2019-01-20T01:48:42.683Z,-2.62
2019-01-20T01:49:15.753Z,-2.69
2019-01-20T01:49:48.791Z,-2.62
2019-01-20T01:50:21.811Z,-2.62
2019-01-20T01:50:54.840Z,-2.62
2019-01-20T01:51:28.126Z,-2.62
2019-01-20T01:52:01.155Z,-2.69
2019-01-20T01:52:34.335Z,-2.69
2019-01-20T01:53:07.339Z,-2.69
2019-01-20T01:53:40.372Z,-2.69
2019-01-20T01:54:14.707Z,-2.69
2019-01-20T01:54:47.671Z,-2.69
2019-01-20T01:55:20.679Z,-2.69
2019-01-20T01:55:53.725Z,-2.69
2019-01-20T01:56:26.528Z,-2.69
2019-01-20T01:56:59.606Z,-2.69
2019-01-20T01:57:32.558Z,-2.69
2019-01-20T01:58:05.667Z,-2.69
2019-01-20T01:58:39.607Z,-2.69
2019-01-20T01:59:12.739Z,-2.75
2019-01-20T01:59:45.641Z,-2.75
2019-01-20T02:00:22.971Z,-2.75
2019-01-20T02:00:56.080Z,-2.81
2019-01-20T02:01:29.161Z,-2.81
2019-01-20T02:02:02.301Z,-2.81
2019-01-20T02:02:35.353Z,-2.81
2019-01-20T02:03:08.367Z,-2.87
2019-01-20T02:03:41.536Z,-2.87
2019-01-20T02:04:14.488Z,-2.87
2019-01-20T02:04:47.439Z,-2.87
2019-01-20T02:05:20.687Z,-2.94
2019-01-20T02:05:53.763Z,-2.94
2019-01-20T02:06:26.907Z,-2.94
2019-01-20T02:06:59.959Z,-3.00
2019-01-20T02:07:32.958Z,-3.00
2019-01-20T02:08:06.115Z,-3.00
2019-01-20T02:08:40.060Z,-3.06
2019-01-20T02:09:15.531Z,-3.00
2019-01-20T02:09:48.621Z,-3.00
2019-01-20T02:10:22.676Z,-3.00
2019-01-20T02:10:55.621Z,-3.00
2019-01-20T02:11:28.696Z,-3.00
2019-01-20T02:12:01.845Z,-3.00
2019-01-20T02:12:35.161Z,-3.00
2019-01-20T02:13:08.093Z,-3.00
2019-01-20T02:13:41.233Z,-3.00
2019-01-20T02:14:14.979Z,-3.00
2019-01-20T02:14:47.906Z,-3.00
2019-01-20T02:15:21.681Z,-3.00
2019-01-20T02:15:54.857Z,-3.00
2019-01-20T02:16:29.421Z,-3.00
2019-01-20T02:17:02.563Z,-3.00
2019-01-20T02:17:35.659Z,-3.00
2019-01-20T02:18:08.825Z,-3.00
2019-01-20T02:18:42.955Z,-3.00
2019-01-20T02:19:16.092Z,-3.00
2019-01-20T02:19:49.141Z,-3.00
2019-01-20T02:20:23.917Z,-3.00
2019-01-20T02:20:57.146Z,-3.00
2019-01-20T02:21:33.124Z,-3.00
2019-01-20T02:22:07.823Z,-3.00
2019-01-20T02:22:40.953Z,-3.00
2019-01-20T02:23:14.027Z,-3.00
2019-01-20T02:23:47.078Z,-3.00
2019-01-20T02:24:20.220Z,-3.00
2019-01-20T02:24:53.335Z,-3.00
2019-01-20T02:25:27.983Z,-3.00
2019-01-20T02:26:01.061Z,-3.00
2019-01-20T02:26:34.083Z,-3.00
2019-01-20T02:27:07.126Z,-3.00
2019-01-20T02:27:40.247Z,-3.00
2019-01-20T02:28:13.297Z,-3.00
2019-01-20T02:28:46.357Z,-3.00
2019-01-20T02:29:19.480Z,-3.00
2019-01-20T02:29:52.585Z,-3.00
2019-01-20T02:30:28.020Z,-3.00
2019-01-20T02:31:01.067Z,-3.00
2019-01-20T02:31:34.129Z,-3.00
2019-01-20T02:32:07.233Z,-3.00
2019-01-20T02:32:40.267Z,-3.06
2019-01-20T02:33:13.295Z,-3.06
2019-01-20T02:33:46.333Z,-3.06
2019-01-20T02:34:19.531Z,-3.06
2019-01-20T02:34:52.659Z,-3.06
2019-01-20T02:35:25.811Z,-3.06
2019-01-20T02:35:59.818Z,-3.12
2019-01-20T02:36:32.909Z,-3.12
2019-01-20T02:37:05.911Z,-3.12
2019-01-20T02:37:40.503Z,-3.12
2019-01-20T02:38:13.546Z,-3.12
2019-01-20T02:38:46.483Z,-3.12
2019-01-20T02:39:19.605Z,-3.12
2019-01-20T02:39:52.758Z,-3.12
2019-01-20T02:40:25.878Z,-3.12
2019-01-20T02:40:58.940Z,-3.06
2019-01-20T02:41:32.071Z,-3.06
2019-01-20T02:42:05.122Z,-3.06
2019-01-20T02:42:38.254Z,-3.12
2019-01-20T02:43:11.301Z,-3.12
2019-01-20T02:43:44.413Z,-3.12
2019-01-20T02:44:17.433Z,-3.12
2019-01-20T02:44:50.567Z,-3.19
2019-01-20T02:45:23.654Z,-3.19
2019-01-20T02:45:56.817Z,-3.19
2019-01-20T02:46:29.942Z,-3.19
2019-01-20T02:47:03.092Z,-3.19
2019-01-20T02:47:36.205Z,-3.19
2019-01-20T02:48:09.355Z,-3.19
2019-01-20T02:48:42.262Z,-3.19
2019-01-20T02:49:16.924Z,-3.19
2019-01-20T02:49:50.015Z,-3.19
2019-01-20T02:50:23.022Z,-3.25
2019-01-20T02:50:57.181Z,-3.19
2019-01-20T02:51:30.097Z,-3.19
2019-01-20T02:52:03.221Z,-3.19
2019-01-20T02:52:36.238Z,-3.25
2019-01-20T02:53:09.282Z,-3.25
2019-01-20T02:53:42.203Z,-3.25
2019-01-20T02:54:15.220Z,-3.25
2019-01-20T02:54:48.246Z,-3.25
2019-01-20T02:55:21.383Z,-3.31
2019-01-20T02:55:55.366Z,-3.31
2019-01-20T02:56:28.409Z,-3.31
2019-01-20T02:57:01.416Z,-3.25
2019-01-20T02:57:34.516Z,-3.25
2019-01-20T02:58:07.654Z,-3.25
2019-01-20T02:58:40.560Z,-3.25
2019-01-20T02:59:13.558Z,-3.25
2019-01-20T02:59:46.595Z,-3.25
2019-01-20T03:00:22.188Z,-3.31
2019-01-20T03:00:55.194Z,-3.31
2019-01-20T03:01:28.311Z,-3.31
2019-01-20T03:02:02.070Z,-3.31
2019-01-20T03:02:35.050Z,-3.31
2019-01-20T03:03:08.067Z,-3.37
2019-01-20T03:03:40.966Z,-3.37
2019-01-20T03:04:13.909Z,-3.37
2019-01-20T03:04:48.057Z,-3.37
2019-01-20T03:05:23.418Z,-3.37
2019-01-20T03:05:56.509Z,-3.37
2019-01-20T03:06:37.163Z,-3.44
2019-01-20T03:07:11.424Z,-3.44
2019-01-20T03:07:44.485Z,-3.44
2019-01-20T03:08:17.665Z,-3.44
2019-01-20T03:08:50.862Z,-3.44
2019-01-20T03:09:23.962Z,-3.44
2019-01-20T03:09:57.057Z,-3.44
2019-01-20T03:10:30.183Z,-3.44
2019-01-20T03:11:03.334Z,-3.50
2019-01-20T03:11:36.388Z,-3.50
2019-01-20T03:12:09.466Z,-3.50
2019-01-20T03:12:42.694Z,-3.50
2019-01-20T03:13:15.738Z,-3.50
2019-01-20T03:13:48.848Z,-3.56
2019-01-20T03:14:21.760Z,-3.56
2019-01-20T03:14:54.842Z,-3.56
2019-01-20T03:15:29.344Z,-3.56
2019-01-20T03:16:02.924Z,-3.62
2019-01-20T03:16:35.944Z,-3.62
2019-01-20T03:17:09.022Z,-3.62
2019-01-20T03:17:42.144Z,-3.62
2019-01-20T03:18:15.239Z,-3.62
2019-01-20T03:18:48.492Z,-3.62
2019-01-20T03:19:21.600Z,-3.62
2019-01-20T03:19:54.616Z,-3.62
2019-01-20T03:20:27.684Z,-3.62
2019-01-20T03:21:00.707Z,-3.62
2019-01-20T03:21:33.754Z,-3.62
2019-01-20T03:22:06.779Z,-3.62
2019-01-20T03:22:39.722Z,-3.62
2019-01-20T03:23:12.730Z,-3.62
2019-01-20T03:23:45.809Z,-3.62
2019-01-20T03:24:18.742Z,-3.62
2019-01-20T03:24:51.905Z,-3.56
2019-01-20T03:25:24.985Z,-3.56
2019-01-20T03:25:58.147Z,-3.56
2019-01-20T03:26:31.140Z,-3.56
2019-01-20T03:27:04.525Z,-3.56
2019-01-20T03:27:37.551Z,-3.50
2019-01-20T03:28:10.613Z,-3.50
2019-01-20T03:28:43.630Z,-3.56
2019-01-20T03:29:16.622Z,-3.50
2019-01-20T03:29:49.528Z,-3.56
2019-01-20T03:30:22.729Z,-3.50
2019-01-20T03:30:55.737Z,-3.56
2019-01-20T03:31:28.784Z,-3.56
2019-01-20T03:32:01.898Z,-3.56
2019-01-20T03:32:34.954Z,-3.56
2019-01-20T03:33:07.969Z,-3.56
2019-01-20T03:33:41.016Z,-3.56
2019-01-20T03:34:14.032Z,-3.56
2019-01-20T03:34:47.048Z,-3.56
2019-01-20T03:35:23.755Z,-3.56
2019-01-20T03:35:56.932Z,-3.56
2019-01-20T03:36:29.923Z,-3.62
2019-01-20T03:37:03.147Z,-3.62
2019-01-20T03:37:36.166Z,-3.69
2019-01-20T03:38:10.216Z,-3.69
2019-01-20T03:38:43.284Z,-3.69
2019-01-20T03:39:16.509Z,-3.75
2019-01-20T03:39:49.396Z,-3.75
2019-01-20T03:40:22.577Z,-3.69
2019-01-20T03:40:55.708Z,-3.69
2019-01-20T03:41:29.925Z,-3.69
2019-01-20T03:42:03.042Z,-3.75
2019-01-20T03:42:36.004Z,-3.75
2019-01-20T03:43:09.016Z,-3.75
2019-01-20T03:43:41.982Z,-3.75
2019-01-20T03:44:15.034Z,-3.81
2019-01-20T03:44:48.082Z,-3.81
2019-01-20T03:45:21.283Z,-3.87
2019-01-20T03:45:55.518Z,-3.87
2019-01-20T03:46:29.656Z,-3.87
2019-01-20T03:47:02.850Z,-3.87
2019-01-20T03:47:35.869Z,-3.87
2019-01-20T03:48:09.176Z,-3.94
2019-01-20T03:48:42.206Z,-3.94
2019-01-20T03:49:15.430Z,-3.94
2019-01-20T03:49:48.324Z,-4.00
2019-01-20T03:50:21.479Z,-4.00
2019-01-20T03:50:54.402Z,-4.00
2019-01-20T03:51:27.462Z,-4.00
2019-01-20T03:52:03.936Z,-4.00
2019-01-20T03:52:37.070Z,-3.69
2019-01-20T03:53:10.082Z,-3.12
2019-01-20T03:53:43.123Z,-3.37
2019-01-20T03:54:16.156Z,-3.50
2019-01-20T03:54:50.392Z,-3.62
2019-01-20T03:55:23.482Z,-3.69
2019-01-20T03:55:56.558Z,-3.69
2019-01-20T03:56:29.564Z,-3.75
2019-01-20T03:57:04.367Z,-3.75
2019-01-20T03:57:37.470Z,-3.75
2019-01-20T03:58:10.516Z,-3.75
2019-01-20T03:58:43.545Z,-3.75
2019-01-20T03:59:16.702Z,-3.75
2019-01-20T03:59:49.700Z,-3.81
2019-01-20T04:00:23.752Z,-3.81
2019-01-20T04:00:56.749Z,-3.81
2019-01-20T04:01:29.800Z,-3.81
2019-01-20T04:02:03.108Z,-3.81
2019-01-20T04:02:36.255Z,-3.81
2019-01-20T04:03:09.386Z,-3.81
2019-01-20T04:03:42.451Z,-3.81
2019-01-20T04:04:15.538Z,-3.81
2019-01-20T04:04:48.624Z,-3.81
2019-01-20T04:05:21.746Z,-3.81
2019-01-20T04:05:54.944Z,-3.81
2019-01-20T04:06:28.059Z,-3.87
2019-01-20T04:07:01.208Z,-3.87
2019-01-20T04:07:34.332Z,-3.87
2019-01-20T04:08:07.479Z,-3.87
2019-01-20T04:08:40.581Z,-3.87
2019-01-20T04:09:15.872Z,-3.94
2019-01-20T04:09:48.992Z,-3.94
2019-01-20T04:10:22.266Z,-3.94
2019-01-20T04:10:56.413Z,-3.94
2019-01-20T04:11:29.850Z,-4.00
2019-01-20T04:12:03.183Z,-4.00
2019-01-20T04:12:36.225Z,-4.00
2019-01-20T04:13:09.228Z,-4.00
2019-01-20T04:13:42.278Z,-4.00
2019-01-20T04:14:15.387Z,-4.00
2019-01-20T04:14:48.405Z,-4.00
2019-01-20T04:15:21.444Z,-4.06
2019-01-20T04:15:54.502Z,-4.06
2019-01-20T04:16:27.545Z,-4.06
2019-01-20T04:17:00.389Z,-4.06
2019-01-20T04:17:33.488Z,-4.06
2019-01-20T04:18:06.827Z,-4.06
2019-01-20T04:18:39.893Z,-4.06
2019-01-20T04:19:13.061Z,-4.06
2019-01-20T04:19:45.974Z,-4.12
2019-01-20T04:20:19.123Z,-4.12
2019-01-20T04:20:52.045Z,-4.06
2019-01-20T04:21:25.088Z,-4.06
2019-01-20T04:21:58.136Z,-4.06
2019-01-20T04:22:31.370Z,-4.12
2019-01-20T04:23:04.375Z,-4.12
2019-01-20T04:23:37.319Z,-4.12
2019-01-20T04:24:10.839Z,-4.12
2019-01-20T04:24:43.832Z,-4.12
2019-01-20T04:25:18.023Z,-4.19
2019-01-20T04:25:51.287Z,-4.19
2019-01-20T04:26:24.306Z,-4.19
2019-01-20T04:26:57.460Z,-4.19
2019-01-20T04:27:30.510Z,-4.19
2019-01-20T04:28:03.871Z,-4.25
2019-01-20T04:28:36.765Z,-4.25
2019-01-20T04:29:09.804Z,-4.25
2019-01-20T04:29:42.807Z,-4.25
2019-01-20T04:30:19.581Z,-4.31
2019-01-20T04:30:52.408Z,-4.31
2019-01-20T04:31:25.578Z,-4.31
2019-01-20T04:31:58.582Z,-4.31
2019-01-20T04:32:31.675Z,-4.31
2019-01-20T04:33:04.681Z,-4.37
2019-01-20T04:33:37.549Z,-4.37
2019-01-20T04:34:10.661Z,-4.37
2019-01-20T04:34:43.649Z,-4.37
2019-01-20T04:35:17.324Z,-4.37
2019-01-20T04:35:50.345Z,-4.37
2019-01-20T04:36:23.427Z,-4.37
2019-01-20T04:36:56.651Z,-4.37
2019-01-20T04:37:29.771Z,-4.37
2019-01-20T04:38:02.801Z,-4.37
2019-01-20T04:38:35.901Z,-4.44
2019-01-20T04:39:09.059Z,-4.44
2019-01-20T04:39:42.055Z,-4.44
2019-01-20T04:40:21.280Z,-4.44
2019-01-20T04:40:54.184Z,-4.44
2019-01-20T04:41:27.148Z,-4.50
2019-01-20T04:42:00.506Z,-4.50
2019-01-20T04:42:33.422Z,-4.50
2019-01-20T04:43:06.396Z,-4.50
2019-01-20T04:43:39.529Z,-4.56
2019-01-20T04:44:12.653Z,-4.56
2019-01-20T04:44:46.681Z,-4.56
2019-01-20T04:45:19.901Z,-4.56
2019-01-20T04:45:52.923Z,-4.56
2019-01-20T04:46:25.845Z,-4.56
2019-01-20T04:46:58.903Z,-4.56
2019-01-20T04:47:31.978Z,-4.62
2019-01-20T04:48:05.123Z,-4.62
2019-01-20T04:48:38.021Z,-4.62
2019-01-20T04:49:11.153Z,-4.62
2019-01-20T04:49:44.507Z,-4.62
2019-01-20T04:50:22.913Z,-4.62
2019-01-20T04:50:58.074Z,-4.62
2019-01-20T04:51:31.091Z,-4.62
2019-01-20T04:52:04.364Z,-4.62
2019-01-20T04:52:37.400Z,-4.62
2019-01-20T04:53:10.428Z,-4.62
2019-01-20T04:53:43.676Z,-4.62
2019-01-20T04:54:16.702Z,-4.62
2019-01-20T04:54:49.739Z,-4.62
2019-01-20T04:55:22.879Z,-4.62
2019-01-20T04:55:55.823Z,-4.62
2019-01-20T04:56:28.846Z,-4.62
2019-01-20T04:57:01.892Z,-4.62
2019-01-20T04:57:35.000Z,-4.62
2019-01-20T04:58:08.151Z,-4.56
2019-01-20T04:58:41.177Z,-4.56
2019-01-20T04:59:14.195Z,-4.62
2019-01-20T04:59:47.281Z,-4.62
2019-01-20T05:00:23.411Z,-4.62
2019-01-20T05:00:56.413Z,-4.62
2019-01-20T05:01:29.357Z,-4.62
2019-01-20T05:02:02.502Z,-4.62
2019-01-20T05:02:35.457Z,-4.62
2019-01-20T05:03:08.361Z,-4.62
2019-01-20T05:03:41.381Z,-4.62
2019-01-20T05:04:15.881Z,-4.62
2019-01-20T05:04:48.925Z,-4.69
2019-01-20T05:05:22.255Z,-4.69
2019-01-20T05:05:55.179Z,-4.69
2019-01-20T05:06:28.345Z,-4.69
2019-01-20T05:07:01.642Z,-4.69
2019-01-20T05:07:36.189Z,-4.69
2019-01-20T05:08:09.476Z,-4.75
2019-01-20T05:08:42.618Z,-4.75
2019-01-20T05:09:15.707Z,-4.75
2019-01-20T05:09:48.637Z,-4.75
2019-01-20T05:10:21.652Z,-4.75
2019-01-20T05:10:55.801Z,-4.75
2019-01-20T05:11:28.918Z,-4.75
2019-01-20T05:12:02.170Z,-4.75
2019-01-20T05:12:37.673Z,-4.75
2019-01-20T05:13:10.213Z,-4.81
2019-01-20T05:13:43.439Z,-4.81
2019-01-20T05:14:16.596Z,-4.81
2019-01-20T05:14:49.663Z,-4.81
2019-01-20T05:15:23.999Z,-4.75
2019-01-20T05:15:57.145Z,-4.75
2019-01-20T05:16:30.231Z,-4.75
2019-01-20T05:17:03.327Z,-4.75
2019-01-20T05:17:36.617Z,-4.75
2019-01-20T05:18:09.728Z,-4.75
2019-01-20T05:18:42.808Z,-4.75
2019-01-20T05:19:16.145Z,-4.75
2019-01-20T05:19:49.146Z,-4.75
2019-01-20T05:20:22.277Z,-4.75
2019-01-20T05:20:55.257Z,-4.75
2019-01-20T05:21:28.302Z,-4.75
2019-01-20T05:22:01.343Z,-4.75
2019-01-20T05:22:34.304Z,-4.75
2019-01-20T05:23:07.436Z,-4.75
2019-01-20T05:23:40.415Z,-4.75
2019-01-20T05:24:13.379Z,-4.75
2019-01-20T05:24:46.214Z,-4.75
2019-01-20T05:25:19.436Z,-4.69
2019-01-20T05:25:52.593Z,-4.69
2019-01-20T05:26:25.545Z,-4.62
2019-01-20T05:26:58.624Z,-4.62
2019-01-20T05:27:31.813Z,-4.62
2019-01-20T05:28:06.509Z,-4.62
2019-01-20T05:28:39.723Z,-4.62
2019-01-20T05:29:12.751Z,-4.62
2019-01-20T05:29:45.838Z,-4.62
2019-01-20T05:30:22.487Z,-4.62
2019-01-20T05:30:55.575Z,-4.56
2019-01-20T05:31:28.722Z,-4.56
2019-01-20T05:32:01.852Z,-4.56
2019-01-20T05:32:34.905Z,-4.56
2019-01-20T05:33:07.951Z,-4.50
2019-01-20T05:33:41.059Z,-4.50
2019-01-20T05:34:13.979Z,-4.50
2019-01-20T05:34:47.171Z,-4.50
2019-01-20T05:35:21.952Z,-4.50
2019-01-20T05:35:54.963Z,-4.50
2019-01-20T05:36:28.014Z,-4.50
2019-01-20T05:37:01.074Z,-4.50
2019-01-20T05:37:34.208Z,-4.50
2019-01-20T05:38:07.180Z,-4.50
2019-01-20T05:38:40.364Z,-4.50
2019-01-20T05:39:13.317Z,-4.50
2019-01-20T05:39:46.387Z,-4.56
2019-01-20T05:40:19.798Z,-4.56
2019-01-20T05:40:53.197Z,-4.56
2019-01-20T05:41:26.042Z,-4.56
2019-01-20T05:41:59.220Z,-4.56
2019-01-20T05:42:32.114Z,-4.56
2019-01-20T05:43:05.303Z,-4.62
2019-01-20T05:43:38.196Z,-4.62
2019-01-20T05:44:11.229Z,-4.62
2019-01-20T05:44:44.347Z,-4.62
2019-01-20T05:45:20.331Z,-4.62
2019-01-20T05:45:53.355Z,-4.62
2019-01-20T05:46:26.611Z,-4.62
2019-01-20T05:46:59.694Z,-4.62
2019-01-20T05:47:32.777Z,-4.62
2019-01-20T05:48:06.472Z,-4.62
2019-01-20T05:48:39.521Z,-4.69
2019-01-20T05:49:12.524Z,-4.69
2019-01-20T05:49:45.678Z,-4.69
2019-01-20T05:50:18.787Z,-4.69
2019-01-20T05:50:52.075Z,-4.69
2019-01-20T05:51:25.097Z,-4.69
2019-01-20T05:51:58.349Z,-4.75
2019-01-20T05:52:31.438Z,-4.75
2019-01-20T05:53:04.769Z,-4.75
2019-01-20T05:53:37.896Z,-4.75
2019-01-20T05:54:11.069Z,-4.75
2019-01-20T05:54:44.263Z,-4.75
2019-01-20T05:55:17.329Z,-4.75
2019-01-20T05:55:50.454Z,-4.75
2019-01-20T05:56:23.600Z,-4.81
2019-01-20T05:56:56.612Z,-4.81
2019-01-20T05:57:29.740Z,-4.81
2019-01-20T05:58:02.831Z,-4.81
2019-01-20T05:58:36.017Z,-4.81
2019-01-20T05:59:09.018Z,-4.81
2019-01-20T05:59:42.216Z,-4.81
2019-01-20T06:00:25.960Z,-4.75
2019-01-20T06:01:00.014Z,-4.75
2019-01-20T06:01:33.031Z,-4.75
2019-01-20T06:02:06.169Z,-4.75
2019-01-20T06:02:39.060Z,-4.75
2019-01-20T06:03:12.064Z,-4.69
2019-01-20T06:03:45.006Z,-4.69
2019-01-20T06:04:18.202Z,-4.69
2019-01-20T06:04:52.542Z,-4.69
2019-01-20T06:05:27.243Z,-4.69
2019-01-20T06:06:00.243Z,-4.69
2019-01-20T06:06:33.388Z,-4.69
2019-01-20T06:07:06.633Z,-4.69
2019-01-20T06:07:39.801Z,-4.69
2019-01-20T06:08:12.854Z,-4.69
2019-01-20T06:08:45.917Z,-4.69
2019-01-20T06:09:18.790Z,-4.69
2019-01-20T06:09:51.806Z,-4.69
2019-01-20T06:10:24.913Z,-4.69
2019-01-20T06:10:57.966Z,-4.69
2019-01-20T06:11:31.004Z,-4.75
2019-01-20T06:12:04.397Z,-4.75
2019-01-20T06:12:37.402Z,-4.75
2019-01-20T06:13:11.627Z,-4.75
2019-01-20T06:13:44.660Z,-4.75
2019-01-20T06:14:17.718Z,-4.75
2019-01-20T06:14:50.718Z,-4.75
2019-01-20T06:15:24.107Z,-4.75
2019-01-20T06:15:57.153Z,-4.75
2019-01-20T06:16:30.296Z,-4.75
2019-01-20T06:17:03.428Z,-4.75
2019-01-20T06:17:36.656Z,-4.75
2019-01-20T06:18:09.738Z,-4.75
2019-01-20T06:18:42.803Z,-4.75
2019-01-20T06:19:15.718Z,-4.75
2019-01-20T06:19:48.925Z,-4.81
2019-01-20T06:20:22.154Z,-4.81
2019-01-20T06:20:55.354Z,-4.81
2019-01-20T06:21:28.460Z,-4.75
2019-01-20T06:22:01.601Z,-4.75
2019-01-20T06:22:34.700Z,-4.75
2019-01-20T06:23:07.724Z,-4.75
2019-01-20T06:23:40.643Z,-4.75
2019-01-20T06:24:13.580Z,-4.75
2019-01-20T06:24:46.574Z,-4.69
2019-01-20T06:25:20.907Z,-4.69
2019-01-20T06:25:53.962Z,-4.62
2019-01-20T06:26:27.096Z,-4.62
2019-01-20T06:27:00.020Z,-4.62
2019-01-20T06:27:33.330Z,-4.62
2019-01-20T06:28:06.218Z,-4.62
2019-01-20T06:28:39.568Z,-4.62
2019-01-20T06:29:12.698Z,-4.56
2019-01-20T06:29:45.994Z,-4.56
2019-01-20T06:30:26.052Z,-4.56
2019-01-20T06:30:59.210Z,-4.62
2019-01-20T06:31:32.112Z,-4.62
2019-01-20T06:32:05.170Z,-4.62
2019-01-20T06:32:38.178Z,-4.62
2019-01-20T06:33:11.254Z,-4.69
2019-01-20T06:33:44.198Z,-4.69
2019-01-20T06:34:17.324Z,-4.69
2019-01-20T06:34:50.315Z,-4.69
2019-01-20T06:35:23.440Z,-4.75
2019-01-20T06:35:56.362Z,-4.75
2019-01-20T06:36:29.328Z,-4.75
2019-01-20T06:37:02.453Z,-4.75
2019-01-20T06:37:35.550Z,-4.75
2019-01-20T06:38:08.587Z,-4.75
2019-01-20T06:38:41.603Z,-4.81
2019-01-20T06:39:14.593Z,-4.81
2019-01-20T06:39:47.693Z,-4.81
2019-01-20T06:40:20.818Z,-4.81
2019-01-20T06:40:53.879Z,-4.81
2019-01-20T06:41:26.683Z,-4.81
2019-01-20T06:41:59.879Z,-4.81
2019-01-20T06:42:32.794Z,-4.81
2019-01-20T06:43:05.910Z,-4.81
2019-01-20T06:43:39.802Z,-4.81
2019-01-20T06:44:12.894Z,-4.87
2019-01-20T06:44:45.796Z,-4.87
2019-01-20T06:45:18.923Z,-4.87
2019-01-20T06:45:51.918Z,-4.87
2019-01-20T06:46:25.112Z,-4.94
2019-01-20T06:46:58.133Z,-4.94
2019-01-20T06:47:31.251Z,-4.94
2019-01-20T06:48:04.389Z,-5.00
2019-01-20T06:48:37.445Z,-5.00
2019-01-20T06:49:10.557Z,-5.00
2019-01-20T06:49:43.631Z,-5.00
2019-01-20T06:50:17.055Z,-5.06
2019-01-20T06:50:50.079Z,-5.06
2019-01-20T06:51:23.079Z,-5.06
2019-01-20T06:51:58.051Z,-5.06
2019-01-20T06:52:31.047Z,-5.06
2019-01-20T06:53:04.266Z,-5.12
2019-01-20T06:53:37.283Z,-5.12
2019-01-20T06:54:10.703Z,-5.12
2019-01-20T06:54:43.821Z,-5.12
2019-01-20T06:55:17.023Z,-5.12
2019-01-20T06:55:50.037Z,-5.12
2019-01-20T06:56:23.082Z,-5.12
2019-01-20T06:56:56.099Z,-5.12
2019-01-20T06:57:30.063Z,-5.12
2019-01-20T06:58:03.179Z,-5.12
2019-01-20T06:58:36.254Z,-5.12
2019-01-20T06:59:09.407Z,-5.12
2019-01-20T06:59:42.536Z,-5.12
2019-01-20T07:00:18.440Z,-5.12
2019-01-20T07:00:51.508Z,-5.12
2019-01-20T07:01:24.516Z,-5.12
2019-01-20T07:01:58.509Z,-5.12
2019-01-20T07:02:31.555Z,-5.12
2019-01-20T07:03:04.733Z,-5.12
2019-01-20T07:03:37.831Z,-5.12
2019-01-20T07:04:10.912Z,-5.12
2019-01-20T07:04:43.979Z,-5.12
2019-01-20T07:05:17.084Z,-5.12
2019-01-20T07:05:50.215Z,-5.06
2019-01-20T07:06:23.283Z,-5.06
2019-01-20T07:06:56.349Z,-5.06
2019-01-20T07:07:29.479Z,-5.06
2019-01-20T07:08:02.797Z,-5.06
2019-01-20T07:08:35.887Z,-5.00
2019-01-20T07:09:08.871Z,-5.00